sensor_id;sensor_type;location;lat;lon;timestamp;temperature;humidity
21950;DHT22;11139;51.284;7.226;2023-06-10T00:02:03;20.00;99.90
21950;DHT22;11139;51.284;7.226;2023-06-10T00:04:29;20.00;99.90
21950;DHT22;11139;51.284;7.226;2023-06-10T00:06:54;20.00;99.90
21950;DHT22;11139;51.284;7.226;2023-06-10T00:09:20;19.90;99.90
21950;DHT22;11139;51.284;7.226;2023-06-10T00:11:46;19.90;99.90
21950;DHT22;11139;51.284;7.226;2023-06-10T00:14:12;19.90;99.90
21950;DHT22;11139;51.284;7.226;2023-06-10T00:16:37;19.90;99.90
21950;DHT22;11139;51.284;7.226;2023-06-10T00:19:04;19.90;99.90
21950;DHT22;11139;51.284;7.226;2023-06-10T00:21:30;19.80;99.90
21950;DHT22;11139;51.284;7.226;2023-06-10T00:23:56;19.80;99.90
21950;DHT22;11139;51.284;7.226;2023-06-10T00:26:22;19.80;99.90
21950;DHT22;11139;51.284;7.226;2023-06-10T00:28:47;19.70;99.90
21950;DHT22;11139;51.284;7.226;2023-06-10T00:31:13;19.70;99.90
21950;DHT22;11139;51.284;7.226;2023-06-10T00:33:38;19.70;99.90
21950;DHT22;11139;51.284;7.226;2023-06-10T00:36:04;19.70;99.90
21950;DHT22;11139;51.284;7.226;2023-06-10T00:38:29;19.60;99.90
21950;DHT22;11139;51.284;7.226;2023-06-10T00:40:55;19.60;99.90
21950;DHT22;11139;51.284;7.226;2023-06-10T00:43:20;19.60;99.90
21950;DHT22;11139;51.284;7.226;2023-06-10T00:45:46;19.50;99.90
21950;DHT22;11139;51.284;7.226;2023-06-10T00:48:11;19.50;99.90
21950;DHT22;11139;51.284;7.226;2023-06-10T00:50:37;19.50;99.90
21950;DHT22;11139;51.284;7.226;2023-06-10T00:53:04;19.50;99.90
21950;DHT22;11139;51.284;7.226;2023-06-10T00:55:31;19.40;99.90
21950;DHT22;11139;51.284;7.226;2023-06-10T00:57:57;19.40;99.90
21950;DHT22;11139;51.284;7.226;2023-06-10T01:00:23;19.40;99.90
21950;DHT22;11139;51.284;7.226;2023-06-10T01:02:49;19.40;99.90
21950;DHT22;11139;51.284;7.226;2023-06-10T01:05:17;19.40;99.90
21950;DHT22;11139;51.284;7.226;2023-06-10T01:15:08;19.20;99.90
21950;DHT22;11139;51.284;7.226;2023-06-10T01:17:34;19.20;99.90
21950;DHT22;11139;51.284;7.226;2023-06-10T01:20:01;19.20;99.90
21950;DHT22;11139;51.284;7.226;2023-06-10T01:22:37;19.20;99.90
21950;DHT22;11139;51.284;7.226;2023-06-10T01:25:02;19.10;99.90
21950;DHT22;11139;51.284;7.226;2023-06-10T01:27:32;19.10;99.90
21950;DHT22;11139;51.284;7.226;2023-06-10T01:30:00;19.10;99.90
21950;DHT22;11139;51.284;7.226;2023-06-10T01:32:40;19.10;99.90
21950;DHT22;11139;51.284;7.226;2023-06-10T01:35:06;19.10;99.90
21950;DHT22;11139;51.284;7.226;2023-06-10T01:37:33;19.00;99.90
21950;DHT22;11139;51.284;7.226;2023-06-10T01:39:59;19.00;99.90
21950;DHT22;11139;51.284;7.226;2023-06-10T01:42:25;19.00;99.90
21950;DHT22;11139;51.284;7.226;2023-06-10T01:44:51;18.90;99.90
21950;DHT22;11139;51.284;7.226;2023-06-10T01:47:16;18.90;99.90
21950;DHT22;11139;51.284;7.226;2023-06-10T01:49:43;18.90;99.90
21950;DHT22;11139;51.284;7.226;2023-06-10T01:52:08;18.90;99.90
21950;DHT22;11139;51.284;7.226;2023-06-10T01:54:34;18.80;99.90
21950;DHT22;11139;51.284;7.226;2023-06-10T01:57:02;18.80;99.90
21950;DHT22;11139;51.284;7.226;2023-06-10T01:59:28;18.80;99.90
21950;DHT22;11139;51.284;7.226;2023-06-10T02:01:53;18.80;99.90
21950;DHT22;11139;51.284;7.226;2023-06-10T02:04:19;18.90;99.90
21950;DHT22;11139;51.284;7.226;2023-06-10T02:06:44;18.80;99.90
21950;DHT22;11139;51.284;7.226;2023-06-10T02:09:10;18.90;99.90
21950;DHT22;11139;51.284;7.226;2023-06-10T02:11:36;18.90;99.90
21950;DHT22;11139;51.284;7.226;2023-06-10T02:14:02;18.90;99.90
21950;DHT22;11139;51.284;7.226;2023-06-10T02:16:27;18.90;99.90
21950;DHT22;11139;51.284;7.226;2023-06-10T02:18:52;18.90;99.90
21950;DHT22;11139;51.284;7.226;2023-06-10T02:21:18;18.90;99.90
21950;DHT22;11139;51.284;7.226;2023-06-10T02:23:44;18.80;99.90
21950;DHT22;11139;51.284;7.226;2023-06-10T02:26:09;18.80;99.90
21950;DHT22;11139;51.284;7.226;2023-06-10T02:28:35;18.80;99.90
21950;DHT22;11139;51.284;7.226;2023-06-10T02:31:00;18.70;99.90
21950;DHT22;11139;51.284;7.226;2023-06-10T02:33:26;18.70;99.90
21950;DHT22;11139;51.284;7.226;2023-06-10T02:35:52;18.70;99.90
21950;DHT22;11139;51.284;7.226;2023-06-10T02:38:17;18.70;99.90
21950;DHT22;11139;51.284;7.226;2023-06-10T02:40:43;18.70;99.90
21950;DHT22;11139;51.284;7.226;2023-06-10T02:43:09;18.70;99.90
21950;DHT22;11139;51.284;7.226;2023-06-10T02:45:34;18.60;99.90
21950;DHT22;11139;51.284;7.226;2023-06-10T02:48:00;18.60;99.90
21950;DHT22;11139;51.284;7.226;2023-06-10T02:50:25;18.50;99.90
21950;DHT22;11139;51.284;7.226;2023-06-10T02:52:51;18.60;99.90
21950;DHT22;11139;51.284;7.226;2023-06-10T02:55:16;18.50;99.90
21950;DHT22;11139;51.284;7.226;2023-06-10T02:57:42;18.50;99.90
21950;DHT22;11139;51.284;7.226;2023-06-10T03:00:08;18.50;99.90
21950;DHT22;11139;51.284;7.226;2023-06-10T03:02:39;18.40;99.90
21950;DHT22;11139;51.284;7.226;2023-06-10T03:05:05;18.40;99.90
21950;DHT22;11139;51.284;7.226;2023-06-10T03:07:35;18.40;99.90
21950;DHT22;11139;51.284;7.226;2023-06-10T03:10:01;18.30;99.90
21950;DHT22;11139;51.284;7.226;2023-06-10T03:12:26;18.30;99.90
21950;DHT22;11139;51.284;7.226;2023-06-10T03:14:52;18.30;99.90
21950;DHT22;11139;51.284;7.226;2023-06-10T03:17:17;18.20;99.90
21950;DHT22;11139;51.284;7.226;2023-06-10T03:19:43;18.20;99.90
21950;DHT22;11139;51.284;7.226;2023-06-10T03:22:15;18.20;99.90
21950;DHT22;11139;51.284;7.226;2023-06-10T03:24:41;18.20;99.90
21950;DHT22;11139;51.284;7.226;2023-06-10T03:27:09;18.20;99.90
21950;DHT22;11139;51.284;7.226;2023-06-10T03:29:39;18.20;99.90
21950;DHT22;11139;51.284;7.226;2023-06-10T03:32:05;18.10;99.90
21950;DHT22;11139;51.284;7.226;2023-06-10T03:34:31;18.10;99.90
21950;DHT22;11139;51.284;7.226;2023-06-10T03:36:57;18.10;99.90
21950;DHT22;11139;51.284;7.226;2023-06-10T03:39:22;18.10;99.90
21950;DHT22;11139;51.284;7.226;2023-06-10T03:41:49;18.00;99.90
21950;DHT22;11139;51.284;7.226;2023-06-10T03:44:14;18.00;99.90
21950;DHT22;11139;51.284;7.226;2023-06-10T03:46:40;18.00;99.90
21950;DHT22;11139;51.284;7.226;2023-06-10T03:49:06;18.00;99.90
21950;DHT22;11139;51.284;7.226;2023-06-10T03:51:32;17.90;99.90
21950;DHT22;11139;51.284;7.226;2023-06-10T03:53:57;17.90;99.90
21950;DHT22;11139;51.284;7.226;2023-06-10T03:56:23;17.90;99.90
21950;DHT22;11139;51.284;7.226;2023-06-10T03:58:48;17.90;99.90
21950;DHT22;11139;51.284;7.226;2023-06-10T04:01:14;17.90;99.90
21950;DHT22;11139;51.284;7.226;2023-06-10T04:03:39;17.90;99.90
21950;DHT22;11139;51.284;7.226;2023-06-10T04:06:07;17.90;99.90
21950;DHT22;11139;51.284;7.226;2023-06-10T04:08:32;17.80;99.90
21950;DHT22;11139;51.284;7.226;2023-06-10T04:10:58;17.80;99.90
21950;DHT22;11139;51.284;7.226;2023-06-10T04:13:23;17.90;99.90
21950;DHT22;11139;51.284;7.226;2023-06-10T04:15:49;17.80;99.90
21950;DHT22;11139;51.284;7.226;2023-06-10T04:18:15;17.90;99.90
21950;DHT22;11139;51.284;7.226;2023-06-10T04:20:41;17.80;99.90
21950;DHT22;11139;51.284;7.226;2023-06-10T04:23:07;17.80;99.90
21950;DHT22;11139;51.284;7.226;2023-06-10T04:25:32;17.80;99.90
21950;DHT22;11139;51.284;7.226;2023-06-10T04:27:58;17.80;99.90
21950;DHT22;11139;51.284;7.226;2023-06-10T04:30:23;17.80;99.90
21950;DHT22;11139;51.284;7.226;2023-06-10T04:32:49;17.90;99.90
21950;DHT22;11139;51.284;7.226;2023-06-10T04:35:14;17.90;99.90
21950;DHT22;11139;51.284;7.226;2023-06-10T04:37:40;17.90;99.90
21950;DHT22;11139;51.284;7.226;2023-06-10T04:40:06;17.90;99.90
21950;DHT22;11139;51.284;7.226;2023-06-10T04:42:32;17.90;99.90
21950;DHT22;11139;51.284;7.226;2023-06-10T04:44:57;17.90;99.90
21950;DHT22;11139;51.284;7.226;2023-06-10T04:47:23;17.90;99.90
21950;DHT22;11139;51.284;7.226;2023-06-10T04:49:48;17.90;99.90
21950;DHT22;11139;51.284;7.226;2023-06-10T04:52:14;17.90;99.90
21950;DHT22;11139;51.284;7.226;2023-06-10T04:54:39;17.90;99.90
21950;DHT22;11139;51.284;7.226;2023-06-10T04:57:05;17.90;99.90
21950;DHT22;11139;51.284;7.226;2023-06-10T04:59:33;17.90;99.90
21950;DHT22;11139;51.284;7.226;2023-06-10T05:01:58;18.00;99.90
21950;DHT22;11139;51.284;7.226;2023-06-10T05:04:24;18.00;99.90
21950;DHT22;11139;51.284;7.226;2023-06-10T05:06:49;18.10;99.90
21950;DHT22;11139;51.284;7.226;2023-06-10T05:09:15;18.10;99.90
21950;DHT22;11139;51.284;7.226;2023-06-10T05:11:40;18.20;99.90
21950;DHT22;11139;51.284;7.226;2023-06-10T05:14:06;18.30;99.90
21950;DHT22;11139;51.284;7.226;2023-06-10T05:16:31;18.30;99.90
21950;DHT22;11139;51.284;7.226;2023-06-10T05:18:57;18.40;99.90
21950;DHT22;11139;51.284;7.226;2023-06-10T05:21:22;18.50;99.90
21950;DHT22;11139;51.284;7.226;2023-06-10T05:23:48;18.50;99.90
21950;DHT22;11139;51.284;7.226;2023-06-10T05:26:13;18.60;99.90
21950;DHT22;11139;51.284;7.226;2023-06-10T05:28:39;18.60;99.90
21950;DHT22;11139;51.284;7.226;2023-06-10T05:31:05;18.70;99.90
21950;DHT22;11139;51.284;7.226;2023-06-10T05:33:30;18.70;99.90
21950;DHT22;11139;51.284;7.226;2023-06-10T05:35:56;18.70;99.90
21950;DHT22;11139;51.284;7.226;2023-06-10T05:38:21;18.70;99.90
21950;DHT22;11139;51.284;7.226;2023-06-10T05:40:47;18.70;99.90
21950;DHT22;11139;51.284;7.226;2023-06-10T05:43:12;18.80;99.90
21950;DHT22;11139;51.284;7.226;2023-06-10T05:45:38;18.80;99.90
21950;DHT22;11139;51.284;7.226;2023-06-10T05:48:05;18.90;99.90
21950;DHT22;11139;51.284;7.226;2023-06-10T05:50:31;18.90;99.90
21950;DHT22;11139;51.284;7.226;2023-06-10T05:53:00;18.90;99.90
21950;DHT22;11139;51.284;7.226;2023-06-10T05:55:25;18.90;99.90
21950;DHT22;11139;51.284;7.226;2023-06-10T05:57:57;18.90;99.90
21950;DHT22;11139;51.284;7.226;2023-06-10T06:00:23;19.00;99.90
21950;DHT22;11139;51.284;7.226;2023-06-10T06:02:48;19.00;99.90
21950;DHT22;11139;51.284;7.226;2023-06-10T06:05:14;19.10;99.90
21950;DHT22;11139;51.284;7.226;2023-06-10T06:07:40;19.10;99.90
21950;DHT22;11139;51.284;7.226;2023-06-10T06:10:05;19.10;99.90
21950;DHT22;11139;51.284;7.226;2023-06-10T06:12:31;19.10;99.90
21950;DHT22;11139;51.284;7.226;2023-06-10T06:14:56;19.20;99.90
21950;DHT22;11139;51.284;7.226;2023-06-10T06:17:22;19.20;99.90
21950;DHT22;11139;51.284;7.226;2023-06-10T06:19:47;19.20;99.90
21950;DHT22;11139;51.284;7.226;2023-06-10T06:22:13;19.20;99.90
21950;DHT22;11139;51.284;7.226;2023-06-10T06:24:38;19.30;99.90
21950;DHT22;11139;51.284;7.226;2023-06-10T06:27:04;19.30;99.90
21950;DHT22;11139;51.284;7.226;2023-06-10T06:29:30;19.30;99.90
21950;DHT22;11139;51.284;7.226;2023-06-10T06:31:55;19.40;99.90
21950;DHT22;11139;51.284;7.226;2023-06-10T06:34:21;19.40;99.90
21950;DHT22;11139;51.284;7.226;2023-06-10T06:36:46;19.40;99.90
21950;DHT22;11139;51.284;7.226;2023-06-10T06:39:12;19.50;99.90
21950;DHT22;11139;51.284;7.226;2023-06-10T06:41:37;19.50;99.90
21950;DHT22;11139;51.284;7.226;2023-06-10T06:44:03;19.50;99.90
21950;DHT22;11139;51.284;7.226;2023-06-10T06:46:28;19.60;99.90
21950;DHT22;11139;51.284;7.226;2023-06-10T06:48:54;19.60;99.90
21950;DHT22;11139;51.284;7.226;2023-06-10T06:51:19;19.60;99.90
21950;DHT22;11139;51.284;7.226;2023-06-10T06:53:45;19.60;99.90
21950;DHT22;11139;51.284;7.226;2023-06-10T06:56:11;19.70;99.90
21950;DHT22;11139;51.284;7.226;2023-06-10T06:58:37;19.70;99.90
21950;DHT22;11139;51.284;7.226;2023-06-10T07:01:02;19.80;99.90
21950;DHT22;11139;51.284;7.226;2023-06-10T07:03:28;19.80;99.90
21950;DHT22;11139;51.284;7.226;2023-06-10T07:05:53;19.80;99.90
21950;DHT22;11139;51.284;7.226;2023-06-10T07:08:19;19.80;99.90
21950;DHT22;11139;51.284;7.226;2023-06-10T07:10:44;19.90;99.90
21950;DHT22;11139;51.284;7.226;2023-06-10T07:13:10;19.90;99.90
21950;DHT22;11139;51.284;7.226;2023-06-10T07:15:35;19.90;99.90
21950;DHT22;11139;51.284;7.226;2023-06-10T07:18:01;20.00;99.90
21950;DHT22;11139;51.284;7.226;2023-06-10T07:20:26;20.00;99.90
21950;DHT22;11139;51.284;7.226;2023-06-10T07:22:52;20.00;99.90
21950;DHT22;11139;51.284;7.226;2023-06-10T07:25:17;20.00;99.90
21950;DHT22;11139;51.284;7.226;2023-06-10T07:27:43;20.10;99.90
21950;DHT22;11139;51.284;7.226;2023-06-10T07:30:09;20.10;99.90
21950;DHT22;11139;51.284;7.226;2023-06-10T07:32:34;20.10;99.90
21950;DHT22;11139;51.284;7.226;2023-06-10T07:35:00;20.10;99.90
21950;DHT22;11139;51.284;7.226;2023-06-10T07:37:25;20.30;99.90
21950;DHT22;11139;51.284;7.226;2023-06-10T07:39:51;20.70;99.90
21950;DHT22;11139;51.284;7.226;2023-06-10T07:42:16;20.70;99.90
21950;DHT22;11139;51.284;7.226;2023-06-10T07:44:42;20.70;99.90
21950;DHT22;11139;51.284;7.226;2023-06-10T07:47:07;20.60;99.90
21950;DHT22;11139;51.284;7.226;2023-06-10T07:49:33;20.70;99.90
21950;DHT22;11139;51.284;7.226;2023-06-10T07:51:58;20.70;99.90
21950;DHT22;11139;51.284;7.226;2023-06-10T07:54:24;20.70;99.90
21950;DHT22;11139;51.284;7.226;2023-06-10T07:56:49;20.70;99.90
21950;DHT22;11139;51.284;7.226;2023-06-10T07:59:15;20.70;99.90
21950;DHT22;11139;51.284;7.226;2023-06-10T08:01:41;21.10;99.90
21950;DHT22;11139;51.284;7.226;2023-06-10T08:04:08;21.50;99.90
21950;DHT22;11139;51.284;7.226;2023-06-10T08:06:33;21.60;99.90
21950;DHT22;11139;51.284;7.226;2023-06-10T08:08:59;21.80;99.90
21950;DHT22;11139;51.284;7.226;2023-06-10T08:11:25;21.80;99.90
21950;DHT22;11139;51.284;7.226;2023-06-10T08:13:53;21.80;99.90
21950;DHT22;11139;51.284;7.226;2023-06-10T08:16:19;21.80;99.90
21950;DHT22;11139;51.284;7.226;2023-06-10T08:18:44;21.80;99.90
21950;DHT22;11139;51.284;7.226;2023-06-10T08:21:10;21.80;99.90
21950;DHT22;11139;51.284;7.226;2023-06-10T08:23:35;21.80;99.90
21950;DHT22;11139;51.284;7.226;2023-06-10T08:26:01;21.70;99.90
21950;DHT22;11139;51.284;7.226;2023-06-10T08:28:26;21.70;99.90
21950;DHT22;11139;51.284;7.226;2023-06-10T08:30:52;21.60;99.90
21950;DHT22;11139;51.284;7.226;2023-06-10T08:33:17;21.50;99.90
21950;DHT22;11139;51.284;7.226;2023-06-10T08:35:43;21.50;99.90
21950;DHT22;11139;51.284;7.226;2023-06-10T08:38:08;21.40;99.90
21950;DHT22;11139;51.284;7.226;2023-06-10T08:40:34;21.40;99.90
21950;DHT22;11139;51.284;7.226;2023-06-10T08:43:06;21.40;99.90
21950;DHT22;11139;51.284;7.226;2023-06-10T08:45:33;21.40;99.90
21950;DHT22;11139;51.284;7.226;2023-06-10T08:48:01;21.40;99.90
21950;DHT22;11139;51.284;7.226;2023-06-10T08:50:28;21.30;99.90
21950;DHT22;11139;51.284;7.226;2023-06-10T08:52:56;21.30;99.90
21950;DHT22;11139;51.284;7.226;2023-06-10T08:55:38;21.30;99.90
21950;DHT22;11139;51.284;7.226;2023-06-10T08:58:07;21.30;99.90
21950;DHT22;11139;51.284;7.226;2023-06-10T09:00:32;21.30;99.90
21950;DHT22;11139;51.284;7.226;2023-06-10T09:02:59;21.30;99.90
21950;DHT22;11139;51.284;7.226;2023-06-10T09:05:24;21.30;99.90
21950;DHT22;11139;51.284;7.226;2023-06-10T09:07:52;21.30;99.90
21950;DHT22;11139;51.284;7.226;2023-06-10T09:10:17;21.20;99.90
21950;DHT22;11139;51.284;7.226;2023-06-10T09:12:43;21.20;99.90
21950;DHT22;11139;51.284;7.226;2023-06-10T09:15:09;21.20;99.90
21950;DHT22;11139;51.284;7.226;2023-06-10T09:17:35;21.20;99.90
21950;DHT22;11139;51.284;7.226;2023-06-10T09:20:02;21.20;99.90
21950;DHT22;11139;51.284;7.226;2023-06-10T09:22:28;21.30;99.90
21950;DHT22;11139;51.284;7.226;2023-06-10T09:27:29;21.30;99.90
21950;DHT22;11139;51.284;7.226;2023-06-10T09:29:55;21.30;99.90
21950;DHT22;11139;51.284;7.226;2023-06-10T09:32:21;21.30;99.90
21950;DHT22;11139;51.284;7.226;2023-06-10T09:34:47;21.30;99.90
21950;DHT22;11139;51.284;7.226;2023-06-10T09:37:13;21.30;99.90
21950;DHT22;11139;51.284;7.226;2023-06-10T09:39:39;21.20;99.90
21950;DHT22;11139;51.284;7.226;2023-06-10T09:42:17;21.30;99.90
21950;DHT22;11139;51.284;7.226;2023-06-10T09:44:49;21.30;99.90
21950;DHT22;11139;51.284;7.226;2023-06-10T09:47:19;21.20;99.90
21950;DHT22;11139;51.284;7.226;2023-06-10T09:49:45;21.30;99.90
21950;DHT22;11139;51.284;7.226;2023-06-10T09:52:10;21.30;99.90
21950;DHT22;11139;51.284;7.226;2023-06-10T09:54:36;21.30;99.90
21950;DHT22;11139;51.284;7.226;2023-06-10T09:57:01;21.30;99.90
21950;DHT22;11139;51.284;7.226;2023-06-10T09:59:32;21.30;99.90
21950;DHT22;11139;51.284;7.226;2023-06-10T10:01:59;21.30;99.90
21950;DHT22;11139;51.284;7.226;2023-06-10T10:04:25;21.30;99.90
21950;DHT22;11139;51.284;7.226;2023-06-10T10:06:51;21.40;99.90
21950;DHT22;11139;51.284;7.226;2023-06-10T10:09:17;21.30;99.90
21950;DHT22;11139;51.284;7.226;2023-06-10T10:11:43;21.40;99.90
21950;DHT22;11139;51.284;7.226;2023-06-10T10:14:09;21.40;99.90
21950;DHT22;11139;51.284;7.226;2023-06-10T10:16:39;21.40;99.90
21950;DHT22;11139;51.284;7.226;2023-06-10T10:19:16;21.40;99.90
21950;DHT22;11139;51.284;7.226;2023-06-10T10:21:53;21.40;99.90
21950;DHT22;11139;51.284;7.226;2023-06-10T10:24:21;21.50;99.90
21950;DHT22;11139;51.284;7.226;2023-06-10T10:26:47;21.50;99.90
21950;DHT22;11139;51.284;7.226;2023-06-10T10:29:20;21.50;99.90
21950;DHT22;11139;51.284;7.226;2023-06-10T10:31:47;21.40;99.90
21950;DHT22;11139;51.284;7.226;2023-06-10T10:34:15;21.50;99.90
21950;DHT22;11139;51.284;7.226;2023-06-10T10:36:42;21.50;99.90
21950;DHT22;11139;51.284;7.226;2023-06-10T10:39:08;21.50;99.90
21950;DHT22;11139;51.284;7.226;2023-06-10T10:41:34;21.50;99.90
21950;DHT22;11139;51.284;7.226;2023-06-10T10:44:01;21.50;99.90
21950;DHT22;11139;51.284;7.226;2023-06-10T10:46:27;21.50;99.90
21950;DHT22;11139;51.284;7.226;2023-06-10T10:48:54;21.60;99.90
21950;DHT22;11139;51.284;7.226;2023-06-10T10:51:22;21.60;99.90
21950;DHT22;11139;51.284;7.226;2023-06-10T10:56:32;21.60;99.90
21950;DHT22;11139;51.284;7.226;2023-06-10T10:59:04;21.60;99.90
21950;DHT22;11139;51.284;7.226;2023-06-10T11:01:39;21.70;99.90
21950;DHT22;11139;51.284;7.226;2023-06-10T11:04:07;21.70;99.90
21950;DHT22;11139;51.284;7.226;2023-06-10T11:06:34;21.70;99.90
21950;DHT22;11139;51.284;7.226;2023-06-10T11:09:00;21.70;99.90
21950;DHT22;11139;51.284;7.226;2023-06-10T11:11:26;21.70;99.90
21950;DHT22;11139;51.284;7.226;2023-06-10T11:14:04;21.70;99.90
21950;DHT22;11139;51.284;7.226;2023-06-10T11:16:42;21.70;99.90
21950;DHT22;11139;51.284;7.226;2023-06-10T11:19:07;21.70;99.90
21950;DHT22;11139;51.284;7.226;2023-06-10T11:21:37;21.70;99.90
21950;DHT22;11139;51.284;7.226;2023-06-10T11:24:13;21.70;99.90
21950;DHT22;11139;51.284;7.226;2023-06-10T11:26:44;21.70;99.90
21950;DHT22;11139;51.284;7.226;2023-06-10T11:29:10;21.70;99.90
21950;DHT22;11139;51.284;7.226;2023-06-10T11:31:40;21.70;99.90
21950;DHT22;11139;51.284;7.226;2023-06-10T11:34:06;21.80;99.90
21950;DHT22;11139;51.284;7.226;2023-06-10T11:36:32;21.70;99.90
21950;DHT22;11139;51.284;7.226;2023-06-10T11:38:59;21.80;99.90
21950;DHT22;11139;51.284;7.226;2023-06-10T11:41:25;21.90;99.90
21950;DHT22;11139;51.284;7.226;2023-06-10T11:43:52;21.90;99.90
21950;DHT22;11139;51.284;7.226;2023-06-10T11:46:17;22.00;99.90
21950;DHT22;11139;51.284;7.226;2023-06-10T11:48:52;22.00;99.90
21950;DHT22;11139;51.284;7.226;2023-06-10T11:51:18;22.00;99.90
21950;DHT22;11139;51.284;7.226;2023-06-10T11:53:47;22.10;99.90
21950;DHT22;11139;51.284;7.226;2023-06-10T11:56:13;22.00;99.90
21950;DHT22;11139;51.284;7.226;2023-06-10T11:58:40;22.10;99.90
21950;DHT22;11139;51.284;7.226;2023-06-10T12:01:08;22.10;99.90
21950;DHT22;11139;51.284;7.226;2023-06-10T12:03:37;22.10;99.90
21950;DHT22;11139;51.284;7.226;2023-06-10T12:08:29;22.10;99.90
21950;DHT22;11139;51.284;7.226;2023-06-10T12:10:55;22.10;99.90
21950;DHT22;11139;51.284;7.226;2023-06-10T12:13:20;22.10;99.90
21950;DHT22;11139;51.284;7.226;2023-06-10T12:15:46;22.10;99.90
21950;DHT22;11139;51.284;7.226;2023-06-10T12:20:46;22.10;99.90
21950;DHT22;11139;51.284;7.226;2023-06-10T12:23:12;22.20;99.90
21950;DHT22;11139;51.284;7.226;2023-06-10T12:25:38;22.20;99.90
21950;DHT22;11139;51.284;7.226;2023-06-10T12:28:04;22.20;99.90
21950;DHT22;11139;51.284;7.226;2023-06-10T12:30:30;22.20;99.90
21950;DHT22;11139;51.284;7.226;2023-06-10T12:32:56;22.20;99.90
21950;DHT22;11139;51.284;7.226;2023-06-10T12:35:22;22.20;99.90
21950;DHT22;11139;51.284;7.226;2023-06-10T12:37:54;22.20;99.90
21950;DHT22;11139;51.284;7.226;2023-06-10T12:40:25;22.30;99.90
21950;DHT22;11139;51.284;7.226;2023-06-10T12:42:51;22.20;99.90
21950;DHT22;11139;51.284;7.226;2023-06-10T12:45:25;22.20;99.90
21950;DHT22;11139;51.284;7.226;2023-06-10T12:47:51;22.20;99.90
21950;DHT22;11139;51.284;7.226;2023-06-10T12:50:16;22.20;99.90
21950;DHT22;11139;51.284;7.226;2023-06-10T12:52:42;22.20;99.90
21950;DHT22;11139;51.284;7.226;2023-06-10T12:55:08;22.20;99.90
21950;DHT22;11139;51.284;7.226;2023-06-10T12:57:33;22.20;99.90
21950;DHT22;11139;51.284;7.226;2023-06-10T12:59:59;22.30;99.90
21950;DHT22;11139;51.284;7.226;2023-06-10T13:02:29;22.40;99.90
21950;DHT22;11139;51.284;7.226;2023-06-10T13:04:54;22.40;99.90
21950;DHT22;11139;51.284;7.226;2023-06-10T13:07:20;22.40;99.90
21950;DHT22;11139;51.284;7.226;2023-06-10T13:09:45;22.40;99.90
21950;DHT22;11139;51.284;7.226;2023-06-10T13:12:14;22.40;99.90
21950;DHT22;11139;51.284;7.226;2023-06-10T13:14:39;22.40;99.90
21950;DHT22;11139;51.284;7.226;2023-06-10T13:17:05;22.40;99.90
21950;DHT22;11139;51.284;7.226;2023-06-10T13:19:33;22.50;99.90
21950;DHT22;11139;51.284;7.226;2023-06-10T13:21:59;22.50;99.90
21950;DHT22;11139;51.284;7.226;2023-06-10T13:24:24;22.40;99.90
21950;DHT22;11139;51.284;7.226;2023-06-10T13:26:50;22.40;99.90
21950;DHT22;11139;51.284;7.226;2023-06-10T13:29:15;22.40;99.90
21950;DHT22;11139;51.284;7.226;2023-06-10T13:31:41;22.40;99.90
21950;DHT22;11139;51.284;7.226;2023-06-10T13:34:07;22.50;99.80
21950;DHT22;11139;51.284;7.226;2023-06-10T13:36:33;22.50;99.70
21950;DHT22;11139;51.284;7.226;2023-06-10T13:38:58;22.50;99.80
21950;DHT22;11139;51.284;7.226;2023-06-10T13:41:24;22.50;99.80
21950;DHT22;11139;51.284;7.226;2023-06-10T13:43:50;22.40;99.90
21950;DHT22;11139;51.284;7.226;2023-06-10T13:46:15;22.40;99.80
21950;DHT22;11139;51.284;7.226;2023-06-10T13:48:41;22.50;99.60
21950;DHT22;11139;51.284;7.226;2023-06-10T13:51:07;22.60;99.50
21950;DHT22;11139;51.284;7.226;2023-06-10T13:53:34;22.60;99.50
21950;DHT22;11139;51.284;7.226;2023-06-10T13:55:59;22.50;99.50
21950;DHT22;11139;51.284;7.226;2023-06-10T13:58:25;22.50;99.50
21950;DHT22;11139;51.284;7.226;2023-06-10T14:00:51;22.50;99.50
21950;DHT22;11139;51.284;7.226;2023-06-10T14:03:16;22.40;99.50
21950;DHT22;11139;51.284;7.226;2023-06-10T14:05:42;22.50;99.50
21950;DHT22;11139;51.284;7.226;2023-06-10T14:08:07;22.50;99.50
21950;DHT22;11139;51.284;7.226;2023-06-10T14:10:33;22.40;99.50
21950;DHT22;11139;51.284;7.226;2023-06-10T14:12:58;22.50;99.50
21950;DHT22;11139;51.284;7.226;2023-06-10T14:15:25;22.50;99.30
21950;DHT22;11139;51.284;7.226;2023-06-10T14:17:51;22.50;99.30
21950;DHT22;11139;51.284;7.226;2023-06-10T14:20:16;22.50;99.30
21950;DHT22;11139;51.284;7.226;2023-06-10T14:22:42;22.50;99.20
21950;DHT22;11139;51.284;7.226;2023-06-10T14:25:07;22.50;99.30
21950;DHT22;11139;51.284;7.226;2023-06-10T14:27:33;22.50;99.30
21950;DHT22;11139;51.284;7.226;2023-06-10T14:29:58;22.60;99.00
21950;DHT22;11139;51.284;7.226;2023-06-10T14:32:24;22.60;99.10
21950;DHT22;11139;51.284;7.226;2023-06-10T14:34:49;22.50;99.10
21950;DHT22;11139;51.284;7.226;2023-06-10T14:37:15;22.50;99.10
21950;DHT22;11139;51.284;7.226;2023-06-10T14:39:40;22.50;99.00
21950;DHT22;11139;51.284;7.226;2023-06-10T14:42:06;22.50;99.00
21950;DHT22;11139;51.284;7.226;2023-06-10T14:44:32;22.40;99.10
21950;DHT22;11139;51.284;7.226;2023-06-10T14:46:57;22.50;99.40
21950;DHT22;11139;51.284;7.226;2023-06-10T14:49:23;22.50;99.00
21950;DHT22;11139;51.284;7.226;2023-06-10T14:51:48;22.50;99.00
21950;DHT22;11139;51.284;7.226;2023-06-10T14:54:15;22.50;99.10
21950;DHT22;11139;51.284;7.226;2023-06-10T14:56:41;22.50;99.10
21950;DHT22;11139;51.284;7.226;2023-06-10T14:59:06;22.50;99.00
21950;DHT22;11139;51.284;7.226;2023-06-10T15:01:32;22.50;99.00
21950;DHT22;11139;51.284;7.226;2023-06-10T15:03:57;22.50;98.90
21950;DHT22;11139;51.284;7.226;2023-06-10T15:06:23;22.50;98.90
21950;DHT22;11139;51.284;7.226;2023-06-10T15:08:48;22.50;98.90
21950;DHT22;11139;51.284;7.226;2023-06-10T15:11:14;22.50;98.70
21950;DHT22;11139;51.284;7.226;2023-06-10T15:13:40;22.50;98.60
21950;DHT22;11139;51.284;7.226;2023-06-10T15:16:05;22.50;98.50
21950;DHT22;11139;51.284;7.226;2023-06-10T15:18:31;22.50;98.60
21950;DHT22;11139;51.284;7.226;2023-06-10T15:20:57;22.50;98.50
21950;DHT22;11139;51.284;7.226;2023-06-10T15:23:22;22.50;98.40
21950;DHT22;11139;51.284;7.226;2023-06-10T15:25:48;22.50;98.10
21950;DHT22;11139;51.284;7.226;2023-06-10T15:28:13;23.20;94.10
21950;DHT22;11139;51.284;7.226;2023-06-10T15:30:39;23.30;94.40
21950;DHT22;11139;51.284;7.226;2023-06-10T15:33:04;23.30;95.00
21950;DHT22;11139;51.284;7.226;2023-06-10T15:35:31;23.20;95.10
21950;DHT22;11139;51.284;7.226;2023-06-10T15:37:57;23.10;95.40
21950;DHT22;11139;51.284;7.226;2023-06-10T15:40:22;23.00;95.50
21950;DHT22;11139;51.284;7.226;2023-06-10T15:42:48;23.00;95.70